This is the latest recevied weather packets stored in our database for station/object F4FEB-14. If no packets are shown the sender has not sent any weather packets the latest 1 day(s).
| Time | Temp. | Humidity | Pressure | Rain* | Wind** | Luminosity | Snow |
|---|---|---|---|---|---|---|---|
| 1777986903 | 15.56° C | 100% | 1010.4 hPa | 0 mm | 0.89 m/s, 220° | - | - |
| 1777986602 | 15.56° C | 100% | 1010.4 hPa | 0 mm | 1.79 m/s, 172° | - | - |
| 1777986301 | 15.56° C | 100% | 1010.3 hPa | 0.25 mm | 0.89 m/s, 163° | - | - |
| 1777985999 | 15.56° C | 100% | 1010.4 hPa | 0.25 mm | 2.24 m/s, 179° | - | - |
| 1777985699 | 16.11° C | 100% | 1010.3 hPa | 0.25 mm | 0.89 m/s, 231° | - | - |
| 1777985398 | 16.67° C | 100% | 1010.3 hPa | 0.25 mm | 0.89 m/s, 286° | - | - |
| 1777985096 | 16.67° C | 100% | 1010.3 hPa | 0.25 mm | 1.34 m/s, 164° | - | - |
| 1777984796 | 16.67° C | 100% | 1010.4 hPa | 0.25 mm | 1.34 m/s, 179° | - | - |
| 1777984494 | 15.56° C | 100% | 1010.3 hPa | 0.25 mm | 0.89 m/s, 207° | - | - |
| 1777984194 | 15° C | 100% | 1010.3 hPa | 0 mm | 0.89 m/s, 220° | - | - |
| 1777983893 | 15° C | 100% | 1010.3 hPa | 0 mm | 1.34 m/s, 166° | - | - |
| 1777983591 | 15° C | 100% | 1010.4 hPa | 0 mm | 1.34 m/s, 161° | - | - |
| 1777983290 | 15.56° C | 100% | 1010.5 hPa | 0 mm | 1.34 m/s, 150° | - | - |
| 1777982990 | 15° C | 100% | 1010.6 hPa | 0 mm | 1.34 m/s, 161° | - | - |
| 1777982689 | 13.89° C | 100% | 1010.6 hPa | 1.02 mm | 1.34 m/s, 168° | - | - |
| 1777982388 | 13.33° C | 100% | 1010.7 hPa | 1.02 mm | 1.79 m/s, 172° | - | - |
| 1777982087 | 12.78° C | 100% | 1010.8 hPa | 1.02 mm | 1.34 m/s, 187° | - | - |
| 1777981785 | 12.78° C | 100% | 1010.9 hPa | 1.02 mm | 1.79 m/s, 173° | - | - |
| 1777981484 | 12.78° C | 100% | 1010.9 hPa | 1.02 mm | 1.79 m/s, 190° | - | - |
| 1777980881 | 12.78° C | 100% | 1010.8 hPa | 0.76 mm | 1.79 m/s, 186° | - | - |
| 1777980580 | 12.78° C | 100% | 1011 hPa | 0.76 mm | 2.24 m/s, 178° | - | - |
| 1777979978 | 12.78° C | 100% | 1010.8 hPa | 0.51 mm | 1.34 m/s, 161° | - | - |
| 1777979677 | 12.78° C | 100% | 1010.9 hPa | 0.25 mm | 0.89 m/s, 191° | - | - |
| 1777979075 | 13.89° C | 100% | 1010.9 hPa | 0.51 mm | 0.89 m/s, 252° | - | - |
| 1777978170 | 13.89° C | 100% | 1010.8 hPa | 0 mm | 0.45 m/s, 240° | - | - |
* Rain latest hour (hover to see other rain measurements)
** Current wind speed in m/s (hover to see current wind gust speed)